Yalaha, Florida
Current Conditions -  °F | °C
As of 2:53 AM on Saturday 25 Oct 2014 (Local Time) from KLEE Reporting Station
Few Clouds Few Clouds  
Wind Chill: 61°   Ceiling: Unl
Heat Index: 61°   Visibility: 10mi
Dew Point: 55°   Wind: 6mph
Humidity: 81%   Direction: 20°NNE
Pressure: 29.98"   Gusts: NA
Location:  28.75°N, 81.82°W
Report Text: KLEE 250653Z AUTO 02005KT 10SM FEW041 16/13 A2998 RMK AO2 SLP151 T01610128
Loading
Personal Weather Stations






























Interactive Weather Map
Tropical Storm Tracking
New forecast layout! Learn more

10-Day Weather Forecast

Advertisements
Track Severe Weather on mobile